Time;durP1;ratioP1;P1;durP2;ratioP2;P2;SDS_P1;SDS_P2;PMS_P1;PMS_P2;Temp;Humidity;BMP_temperature;BMP_pressure;BME280_temperature;BME280_humidity;BME280_pressure;Samples;Min_cycle;Max_cycle;Signal;HPM_P1;HPM_P2
2022/01/17 00:01:31;;;;;;;3.10;2.30;;;22.40;32.90;;;;;;5094330;28;20405;-65
2022/01/17 00:03:57;;;;;;;3.50;2.42;;;22.40;32.80;;;;;;5094175;28;20418;-74
2022/01/17 00:06:23;;;;;;;2.40;2.00;;;22.40;32.90;;;;;;5094048;28;20918;-74
2022/01/17 00:08:49;;;;;;;2.77;2.00;;;22.40;32.90;;;;;;5094567;28;20397;-71
2022/01/17 00:11:16;;;;;;;2.63;2.03;;;22.30;32.80;;;;;;5094231;28;20370;-70
2022/01/17 00:13:47;;;;;;;2.85;2.22;;;22.30;32.90;;;;;;5075612;28;20951;-71
2022/01/17 00:16:18;;;;;;;2.88;2.10;;;22.30;32.80;;;;;;5094143;28;20387;-75
2022/01/17 00:21:14;;;;;;;2.55;1.88;;;22.30;32.80;;;;;;5094327;28;20413;-74
2022/01/17 00:23:41;;;;;;;2.25;1.92;;;22.30;32.80;;;;;;5093880;28;20398;-74
2022/01/17 00:26:06;;;;;;;2.88;2.05;;;22.30;32.80;;;;;;5094113;28;20381;-68
2022/01/17 00:28:33;;;;;;;2.70;2.20;;;22.20;32.80;;;;;;5075920;28;20395;-71
2022/01/17 00:31:04;;;;;;;2.40;1.95;;;22.30;32.70;;;;;;5094076;28;20450;-72
2022/01/17 00:33:31;;;;;;;2.65;2.00;;;22.30;32.70;;;;;;5093917;28;20390;-75
2022/01/17 00:35:56;;;;;;;2.22;1.90;;;22.30;32.70;;;;;;5093913;28;20416;-74
2022/01/17 00:38:22;;;;;;;2.20;1.98;;;22.30;32.60;;;;;;5093893;28;20390;-74
2022/01/17 00:40:48;;;;;;;2.40;1.87;;;22.30;32.50;;;;;;5093356;28;20374;-71
2022/01/17 00:43:14;;;;;;;2.33;1.63;;;22.30;32.50;;;;;;5093647;28;20477;-66
2022/01/17 00:45:43;;;;;;;2.30;1.75;;;22.30;32.50;;;;;;5093671;28;20863;-67
2022/01/17 00:48:10;;;;;;;2.00;1.80;;;22.20;32.50;;;;;;5093494;28;20614;-75
2022/01/17 00:50:37;;;;;;;2.55;1.90;;;22.30;32.50;;;;;;5075534;28;20386;-67
2022/01/17 00:53:08;;;;;;;2.13;1.77;;;22.20;32.40;;;;;;5075708;28;20744;-68
2022/01/17 00:55:35;;;;;;;2.70;2.20;;;22.20;32.50;;;;;;5093469;28;20476;-71
2022/01/17 00:58:02;;;;;;;3.42;2.10;;;22.20;32.50;;;;;;5093591;28;20464;-67
2022/01/17 01:00:28;;;;;;;2.55;2.20;;;22.20;32.50;;;;;;5075260;28;20390;-71
2022/01/17 01:02:56;;;;;;;2.47;1.98;;;22.20;32.40;;;;;;5109140;28;20437;-64
2022/01/17 01:05:22;;;;;;;2.58;2.00;;;22.20;32.50;;;;;;5093304;28;20407;-68
2022/01/17 01:07:48;;;;;;;2.38;2.10;;;22.20;32.50;;;;;;5075126;28;20390;-72
2022/01/17 01:10:14;;;;;;;2.83;1.90;;;22.20;32.40;;;;;;5093369;28;20596;-70
2022/01/17 01:12:43;;;;;;;2.53;1.98;;;22.10;32.40;;;;;;5093157;28;20473;-64
2022/01/17 01:15:23;;;;;;;2.17;1.88;;;22.10;32.40;;;;;;5092596;28;20461;-74
2022/01/17 01:28:20;;;;;;;2.25;1.85;;;22.10;32.40;;;;;;5093020;28;20403;-74
2022/01/17 01:30:49;;;;;;;2.93;1.87;;;22.10;32.30;;;;;;5092917;28;20473;-75
2022/01/17 01:33:23;;;;;;;2.37;2.00;;;22.10;32.40;;;;;;5092940;28;20479;-75
2022/01/17 01:35:49;;;;;;;2.40;1.90;;;22.10;32.30;;;;;;5092574;28;20389;-75
2022/01/17 01:38:15;;;;;;;2.20;1.90;;;22.10;32.30;;;;;;5092761;28;20398;-75
2022/01/17 01:40:41;;;;;;;2.10;1.77;;;22.00;32.30;;;;;;5074491;28;20386;-70
2022/01/17 01:43:06;;;;;;;2.55;1.90;;;22.10;32.30;;;;;;5108198;28;20410;-72
2022/01/17 01:45:32;;;;;;;2.10;1.80;;;22.10;32.30;;;;;;5092580;28;20386;-70
2022/01/17 01:47:58;;;;;;;2.15;1.83;;;22.10;32.20;;;;;;5092386;28;20408;-70
2022/01/17 01:50:24;;;;;;;2.33;1.77;;;22.10;32.20;;;;;;5092701;28;20382;-64
2022/01/17 01:52:49;;;;;;;1.77;1.58;;;22.10;32.20;;;;;;5092321;28;20830;-68
2022/01/17 01:55:18;;;;;;;2.33;1.70;;;22.10;32.20;;;;;;5092366;28;20827;-74
2022/01/17 01:57:44;;;;;;;2.30;1.70;;;22.00;32.10;;;;;;5092304;28;20493;-64
2022/01/17 02:00:13;;;;;;;2.25;1.75;;;22.10;32.30;;;;;;5092453;28;20930;-66
2022/01/17 02:02:39;;;;;;;2.20;1.70;;;22.00;32.10;;;;;;5091909;28;20428;-75
2022/01/17 02:05:05;;;;;;;1.90;1.60;;;22.00;32.10;;;;;;5092258;28;20935;-75
2022/01/17 02:07:31;;;;;;;1.83;1.60;;;22.00;32.00;;;;;;5092044;28;20921;-70
2022/01/17 02:09:57;;;;;;;1.95;1.70;;;22.00;32.00;;;;;;5092321;28;20439;-73
2022/01/17 02:12:25;;;;;;;2.25;1.90;;;22.00;31.70;;;;;;5092088;28;20465;-73
2022/01/17 02:14:53;;;;;;;2.10;1.63;;;21.90;32.00;;;;;;5091994;28;20847;-69
2022/01/17 02:17:20;;;;;;;2.10;1.67;;;22.00;32.00;;;;;;5092007;28;20859;-76
2022/01/17 02:20:06;;;;;;;2.17;1.60;;;22.00;31.90;;;;;;5091932;28;20370;-66
2022/01/17 02:22:32;;;;;;;2.10;1.80;;;21.90;31.70;;;;;;5091897;28;20917;-71
2022/01/17 02:24:59;;;;;;;2.08;1.70;;;21.90;32.00;;;;;;5092019;28;20516;-69
2022/01/17 02:27:24;;;;;;;2.90;1.80;;;21.90;31.90;;;;;;5092087;28;20754;-73
2022/01/17 02:29:50;;;;;;;1.97;1.67;;;22.00;31.90;;;;;;5091849;28;20461;-70
2022/01/17 02:32:16;;;;;;;2.60;1.60;;;21.90;31.60;;;;;;5092057;28;20488;-73
2022/01/17 02:34:43;;;;;;;2.47;1.83;;;21.90;31.70;;;;;;5091536;28;20370;-68
2022/01/17 02:37:10;;;;;;;2.15;1.70;;;21.90;31.70;;;;;;5091789;28;20374;-74
2022/01/17 02:39:36;;;;;;;1.83;1.60;;;21.90;31.80;;;;;;5091817;28;20413;-70
2022/01/17 02:42:04;;;;;;;2.22;1.67;;;21.80;31.70;;;;;;5091827;28;20410;-68
2022/01/17 02:44:29;;;;;;;2.08;1.70;;;21.80;31.60;;;;;;5091855;28;20469;-69
2022/01/17 02:46:55;;;;;;;2.10;1.70;;;21.80;31.60;;;;;;5091692;28;20477;-77
2022/01/17 02:49:21;;;;;;;1.98;1.60;;;21.80;31.60;;;;;;5091824;28;20479;-73
2022/01/17 02:51:48;;;;;;;1.90;1.42;;;21.80;31.60;;;;;;5091849;28;20390;-69
2022/01/17 02:54:14;;;;;;;1.88;1.50;;;21.80;31.50;;;;;;5091774;28;20389;-70
2022/01/17 02:56:40;;;;;;;2.05;1.63;;;21.80;31.60;;;;;;5091742;28;20461;-74
2022/01/17 02:59:06;;;;;;;1.70;1.48;;;21.80;31.60;;;;;;5091745;28;20484;-70
2022/01/17 03:01:32;;;;;;;1.98;1.60;;;21.80;31.60;;;;;;5091647;28;20418;-71
2022/01/17 03:03:58;;;;;;;1.98;1.50;;;21.90;31.60;;;;;;5091738;28;20393;-74
2022/01/17 03:06:25;;;;;;;2.03;1.60;;;21.90;31.70;;;;;;5091461;28;20378;-72
2022/01/17 03:08:51;;;;;;;1.80;1.60;;;21.80;31.60;;;;;;5091631;28;20385;-76
2022/01/17 03:11:20;;;;;;;1.77;1.50;;;21.80;31.60;;;;;;5091300;28;20386;-73
2022/01/17 03:13:48;;;;;;;2.47;1.40;;;21.80;31.60;;;;;;5091602;28;20382;-67
2022/01/17 03:16:15;;;;;;;1.70;1.60;;;21.80;31.60;;;;;;5091428;28;20386;-68
2022/01/17 03:18:47;;;;;;;2.10;1.52;;;21.80;31.60;;;;;;5091375;28;20477;-76
2022/01/17 03:21:15;;;;;;;1.95;1.50;;;21.80;31.70;;;;;;5090866;28;20393;-74
2022/01/17 03:23:41;;;;;;;1.95;1.45;;;21.80;31.60;;;;;;5091420;28;20430;-74
2022/01/17 03:26:07;;;;;;;1.80;1.40;;;21.80;31.60;;;;;;5091541;28;20391;-75
2022/01/17 03:28:33;;;;;;;1.80;1.52;;;21.80;31.60;;;;;;5073442;28;20764;-76
2022/01/17 03:30:59;;;;;;;1.95;1.40;;;21.80;31.60;;;;;;5091595;28;20382;-73
2022/01/17 03:33:26;;;;;;;1.75;1.40;;;21.80;31.50;;;;;;5091420;28;20398;-65
2022/01/17 03:35:52;;;;;;;2.15;1.38;;;21.70;31.50;;;;;;5090447;28;20391;-67
2022/01/17 03:38:21;;;;;;;1.70;1.40;;;21.80;31.60;;;;;;5091344;28;20383;-68
2022/01/17 03:40:47;;;;;;;1.65;1.35;;;21.70;31.50;;;;;;5094267;28;20382;-69
2022/01/17 03:43:13;;;;;;;1.80;1.40;;;21.70;31.40;;;;;;5095092;28;20737;-73
2022/01/17 03:45:40;;;;;;;1.58;1.30;;;21.70;31.60;;;;;;5095003;28;20454;-68
2022/01/17 03:48:06;;;;;;;1.85;1.50;;;21.70;31.40;;;;;;5094534;28;20409;-72
2022/01/17 03:50:31;;;;;;;1.55;1.20;;;21.70;31.50;;;;;;5094608;28;20386;-69
2022/01/17 03:52:57;;;;;;;1.90;1.40;;;21.70;31.40;;;;;;5094373;28;20382;-67
2022/01/17 03:55:24;;;;;;;1.40;1.20;;;21.70;31.50;;;;;;5094819;28;20389;-68
2022/01/17 03:57:50;;;;;;;1.60;1.30;;;21.70;31.50;;;;;;5094745;28;20855;-73
2022/01/17 04:00:25;;;;;;;2.83;1.33;;;21.70;31.50;;;;;;5094523;28;20393;-66
2022/01/17 04:02:53;;;;;;;1.50;1.27;;;21.70;31.50;;;;;;5094527;28;20406;-73
2022/01/17 04:05:19;;;;;;;2.25;1.10;;;21.70;31.40;;;;;;5094517;28;20382;-70
2022/01/17 04:07:45;;;;;;;2.55;1.33;;;21.70;31.50;;;;;;5094439;28;20390;-63
2022/01/17 04:10:11;;;;;;;4.03;1.10;;;21.80;32.20;;;;;;5094348;28;20405;-70
2022/01/17 04:12:37;;;;;;;3.10;1.23;;;21.80;31.20;;;;;;5093957;28;20398;-68
2022/01/17 04:15:06;;;;;;;3.73;2.00;;;21.90;32.60;;;;;;5094467;28;20785;-75
2022/01/17 04:17:31;;;;;;;2.00;1.38;;;21.90;33.20;;;;;;5094056;28;20467;-63
2022/01/17 04:20:05;;;;;;;3.60;1.50;;;21.90;33.30;;;;;;5076236;28;20739;-67
2022/01/17 04:22:34;;;;;;;4.10;1.70;;;21.90;34.50;;;;;;5093066;28;20410;-72
2022/01/17 04:25:01;;;;;;;4.22;1.50;;;22.00;34.80;;;;;;5093740;28;20402;-67
2022/01/17 04:27:27;;;;;;;2.95;1.40;;;22.00;34.60;;;;;;5093735;28;20389;-67
2022/01/17 04:29:52;;;;;;;3.17;1.30;;;22.00;34.10;;;;;;5093544;28;20786;-73
2022/01/17 04:32:18;;;;;;;4.37;1.43;;;22.10;34.10;;;;;;5093552;28;20382;-76
2022/01/17 04:34:44;;;;;;;2.60;1.40;;;22.10;34.40;;;;;;5093286;28;20385;-67
2022/01/17 04:37:09;;;;;;;5.30;1.30;;;22.10;34.40;;;;;;5093293;28;20480;-70
2022/01/17 04:39:35;;;;;;;2.88;1.38;;;22.10;34.50;;;;;;5093062;28;20370;-74
2022/01/17 04:42:09;;;;;;;2.50;1.30;;;22.10;33.70;;;;;;5093679;28;20441;-75
2022/01/17 04:47:19;;;;;;;3.88;1.30;;;22.10;33.90;;;;;;5093785;28;20446;-63
2022/01/17 04:49:45;;;;;;;3.17;1.20;;;22.10;33.70;;;;;;5093496;28;20390;-68
2022/01/17 04:52:13;;;;;;;1.50;1.10;;;22.10;33.40;;;;;;5092677;28;20435;-69
2022/01/17 04:54:41;;;;;;;2.10;1.10;;;22.00;33.60;;;;;;5093270;28;20394;-64
2022/01/17 04:57:12;;;;;;;1.90;1.17;;;22.00;33.10;;;;;;5093417;28;20910;-76
2022/01/17 04:59:41;;;;;;;2.57;1.10;;;22.00;32.70;;;;;;5075313;28;20421;-72
2022/01/17 05:02:07;;;;;;;3.88;1.30;;;21.90;32.80;;;;;;5093365;28;20899;-69
2022/01/17 05:04:33;;;;;;;2.28;1.00;;;21.90;32.70;;;;;;5093418;28;20447;-67
2022/01/17 05:06:59;;;;;;;1.70;1.10;;;21.90;32.70;;;;;;5093196;28;20386;-76
2022/01/17 05:09:24;;;;;;;2.75;1.10;;;21.90;32.70;;;;;;5092877;28;20382;-76
2022/01/17 05:11:51;;;;;;;1.87;1.10;;;21.90;32.40;;;;;;5092889;28;20397;-73
2022/01/17 05:14:16;;;;;;;2.47;1.15;;;21.90;32.30;;;;;;5093061;28;20380;-64
2022/01/17 05:16:50;;;;;;;1.63;1.10;;;21.80;32.50;;;;;;5093168;28;20396;-63
2022/01/17 05:22:00;;;;;;;2.20;0.90;;;21.80;33.10;;;;;;5092754;28;20453;-63
2022/01/17 05:24:26;;;;;;;2.10;1.02;;;21.90;32.90;;;;;;5092887;28;20416;-65
2022/01/17 05:26:51;;;;;;;2.37;1.10;;;21.90;33.10;;;;;;5092892;28;20400;-63
2022/01/17 05:29:17;;;;;;;2.80;1.10;;;21.80;32.30;;;;;;5093239;28;20484;-77
2022/01/17 05:31:43;;;;;;;2.30;1.10;;;21.80;32.40;;;;;;5093284;28;20388;-63
2022/01/17 05:34:09;;;;;;;3.40;1.10;;;21.70;33.40;;;;;;5092916;28;20440;-76
2022/01/17 05:36:34;;;;;;;3.00;1.07;;;21.80;33.30;;;;;;5092517;28;20402;-63
2022/01/17 05:39:00;;;;;;;2.38;1.10;;;21.80;32.90;;;;;;5092580;28;20935;-64
2022/01/17 05:41:26;;;;;;;1.90;1.20;;;21.80;33.30;;;;;;5098283;28;20396;-64
2022/01/17 05:43:51;;;;;;;2.00;0.90;;;21.80;32.50;;;;;;5111815;28;20388;-77
2022/01/17 05:46:17;;;;;;;3.38;1.20;;;21.80;32.60;;;;;;5112946;28;20392;-64
2022/01/17 05:48:42;;;;;;;3.47;1.20;;;21.80;33.00;;;;;;5112940;28;20454;-63
2022/01/17 05:51:08;;;;;;;2.88;1.13;;;21.80;32.70;;;;;;5094820;28;20385;-63
2022/01/17 05:53:34;;;;;;;3.20;1.30;;;21.80;32.70;;;;;;5112737;28;20400;-66
2022/01/17 05:56:00;;;;;;;5.30;1.30;;;21.80;33.00;;;;;;5112808;28;20850;-63
2022/01/17 05:58:26;;;;;;;3.47;1.30;;;21.80;32.90;;;;;;5112935;28;20471;-69
2022/01/17 06:00:52;;;;;;;4.97;1.23;;;21.80;33.10;;;;;;5112639;28;20422;-63
2022/01/17 06:03:18;;;;;;;3.80;1.20;;;21.80;32.60;;;;;;5107894;28;20398;-67
2022/01/17 06:05:44;;;;;;;3.40;1.40;;;21.80;32.50;;;;;;5092241;28;20375;-77
2022/01/17 06:08:09;;;;;;;4.72;1.15;;;21.80;32.50;;;;;;5091253;28;20435;-71
2022/01/17 06:10:35;;;;;;;8.15;1.38;;;21.80;33.10;;;;;;5091820;28;20386;-75
2022/01/17 06:13:01;;;;;;;2.70;1.10;;;21.80;33.70;;;;;;5090458;28;20394;-70
2022/01/17 06:15:27;;;;;;;2.60;1.20;;;21.80;34.10;;;;;;5090249;28;20390;-65
2022/01/17 06:17:53;;;;;;;4.70;2.08;;;21.90;34.00;;;;;;5090352;28;20426;-68
2022/01/17 06:20:19;;;;;;;3.25;1.70;;;22.00;34.60;;;;;;5072158;28;20436;-77
2022/01/17 06:22:44;;;;;;;5.37;2.00;;;22.00;35.00;;;;;;5090112;28;20851;-64
2022/01/17 06:25:10;;;;;;;3.28;1.73;;;22.00;35.70;;;;;;5089374;28;20752;-65
2022/01/17 06:27:36;;;;;;;4.07;1.90;;;22.10;35.40;;;;;;5089751;28;20390;-74
2022/01/17 06:30:04;;;;;;;5.50;1.80;;;22.10;35.60;;;;;;5072414;28;20401;-64
2022/01/17 06:32:30;;;;;;;4.40;1.70;;;22.10;35.40;;;;;;5090025;28;20401;-64
2022/01/17 06:34:57;;;;;;;5.05;1.70;;;22.10;35.50;;;;;;5090415;28;20786;-64
2022/01/17 06:37:23;;;;;;;4.13;1.75;;;22.10;35.30;;;;;;5090654;28;20481;-63
2022/01/17 06:39:49;;;;;;;3.13;1.40;;;22.10;35.30;;;;;;5090669;28;20454;-70
2022/01/17 06:42:15;;;;;;;4.57;1.88;;;22.10;35.30;;;;;;5090498;28;20410;-65
2022/01/17 06:44:40;;;;;;;2.55;1.52;;;22.10;34.50;;;;;;5090881;28;20382;-64
2022/01/17 06:47:07;;;;;;;2.90;1.60;;;22.00;34.60;;;;;;5090747;28;20390;-70
2022/01/17 06:49:32;;;;;;;3.05;1.55;;;22.00;34.80;;;;;;5088285;28;21000;-64
2022/01/17 06:51:58;;;;;;;4.38;1.60;;;22.10;35.00;;;;;;5091441;28;20488;-64
2022/01/17 06:54:24;;;;;;;2.87;1.50;;;22.00;34.40;;;;;;5091844;28;20421;-77
2022/01/17 06:56:49;;;;;;;3.58;1.45;;;22.00;33.90;;;;;;5091616;28;20393;-66
2022/01/17 06:59:15;;;;;;;2.55;1.23;;;22.00;33.80;;;;;;5091867;28;20385;-64
2022/01/17 07:01:42;;;;;;;2.50;1.55;;;21.90;34.00;;;;;;5091438;28;20899;-62
2022/01/17 07:04:08;;;;;;;2.17;1.15;;;21.90;33.60;;;;;;5072838;28;20386;-62
2022/01/17 07:06:34;;;;;;;4.07;1.35;;;21.90;33.20;;;;;;5091463;28;20418;-76
2022/01/17 07:09:00;;;;;;;1.83;1.20;;;21.90;33.20;;;;;;5091045;28;20426;-77
2022/01/17 07:11:26;;;;;;;2.78;1.30;;;21.80;33.70;;;;;;5091073;28;20397;-77
2022/01/17 07:13:52;;;;;;;4.13;1.43;;;21.80;34.00;;;;;;5073820;28;20401;-77
2022/01/17 07:16:19;;;;;;;4.47;1.40;;;21.90;33.90;;;;;;5095318;28;20394;-77
2022/01/17 07:18:44;;;;;;;4.10;1.38;;;21.90;33.80;;;;;;5095299;28;20421;-75
2022/01/17 07:21:10;;;;;;;5.30;1.80;;;21.80;33.60;;;;;;5095129;28;20412;-64
2022/01/17 07:23:36;;;;;;;5.05;2.08;;;21.80;33.70;;;;;;5091045;28;20405;-75
2022/01/17 07:26:02;;;;;;;4.70;1.93;;;21.80;33.80;;;;;;5088877;28;20378;-77
2022/01/17 07:28:28;;;;;;;5.22;2.20;;;21.80;33.90;;;;;;5095142;28;20443;-76
2022/01/17 07:30:54;;;;;;;4.87;2.00;;;21.90;34.20;;;;;;5094590;28;20385;-77
2022/01/17 07:33:21;;;;;;;3.95;1.77;;;21.90;34.00;;;;;;5095345;28;20382;-77
2022/01/17 07:35:48;;;;;;;4.47;1.70;;;21.80;33.80;;;;;;5092794;28;20394;-78
2022/01/17 07:38:14;;;;;;;3.78;1.58;;;21.80;33.60;;;;;;5093603;28;20394;-78
2022/01/17 07:40:43;;;;;;;4.03;1.60;;;21.90;33.60;;;;;;5093507;28;20469;-73
2022/01/17 07:43:10;;;;;;;3.28;1.58;;;21.80;33.40;;;;;;5093932;28;20504;-78
2022/01/17 07:45:43;;;;;;;3.05;1.58;;;21.80;33.30;;;;;;5093747;28;20378;-74
2022/01/17 07:48:23;;;;;;;3.53;1.40;;;21.80;33.20;;;;;;5093277;28;20409;-75
2022/01/17 07:50:49;;;;;;;2.90;1.27;;;21.80;33.10;;;;;;5094932;28;20417;-79
2022/01/17 07:53:16;;;;;;;2.95;1.23;;;21.80;33.10;;;;;;5094862;28;20424;-75
2022/01/17 07:55:42;;;;;;;2.55;1.20;;;21.90;33.00;;;;;;5094558;28;20394;-69
2022/01/17 07:58:08;;;;;;;1.88;1.10;;;21.80;33.10;;;;;;5094651;28;20439;-69
2022/01/17 08:00:33;;;;;;;4.65;1.10;;;21.80;33.40;;;;;;5094540;28;20425;-75
2022/01/17 08:03:02;;;;;;;3.03;1.15;;;21.90;33.70;;;;;;5094281;28;20409;-75
2022/01/17 08:05:28;;;;;;;2.42;1.13;;;21.90;33.10;;;;;;5094360;28;20390;-73
2022/01/17 08:07:54;;;;;;;2.00;0.90;;;21.80;33.40;;;;;;5094512;28;20390;-68
2022/01/17 08:10:19;;;;;;;2.67;1.00;;;21.80;33.20;;;;;;5094532;28;20920;-63
2022/01/17 08:12:47;;;;;;;2.70;1.20;;;21.80;33.50;;;;;;5094408;28;20389;-75
2022/01/17 08:15:14;;;;;;;2.80;1.10;;;21.70;33.50;;;;;;5094687;28;20374;-65
2022/01/17 08:17:40;;;;;;;2.70;0.90;;;21.70;33.40;;;;;;5094244;28;20390;-75
2022/01/17 08:20:07;;;;;;;2.30;1.00;;;21.70;33.50;;;;;;5093993;28;20382;-65
2022/01/17 08:22:33;;;;;;;3.35;1.30;;;21.70;33.40;;;;;;5075287;28;20429;-75
2022/01/17 08:24:59;;;;;;;2.70;1.10;;;21.70;33.50;;;;;;5093991;28;20382;-63
2022/01/17 08:27:26;;;;;;;3.30;1.30;;;21.70;33.60;;;;;;5094027;28;20397;-76
2022/01/17 08:29:52;;;;;;;2.25;1.10;;;21.60;33.60;;;;;;5093866;28;20445;-76
2022/01/17 08:32:18;;;;;;;2.67;1.10;;;21.60;33.50;;;;;;5094055;28;20398;-75
2022/01/17 08:34:46;;;;;;;2.42;1.10;;;21.70;33.50;;;;;;5094374;28;20390;-72
2022/01/17 08:37:12;;;;;;;2.33;1.20;;;21.70;33.40;;;;;;5093944;28;20386;-75
2022/01/17 08:39:37;;;;;;;3.37;1.50;;;21.70;33.40;;;;;;5075843;28;20397;-75
2022/01/17 08:42:10;;;;;;;2.22;1.30;;;21.60;33.30;;;;;;5093760;28;20427;-74
2022/01/17 08:44:39;;;;;;;2.45;1.10;;;21.60;33.40;;;;;;5093651;28;20375;-74
2022/01/17 08:47:05;;;;;;;2.35;1.10;;;21.60;33.40;;;;;;5093439;28;20929;-65
2022/01/17 08:49:31;;;;;;;3.75;1.00;;;21.60;33.40;;;;;;5093929;28;20413;-65
2022/01/17 08:51:56;;;;;;;1.90;1.00;;;21.60;33.30;;;;;;5093479;28;20864;-73
2022/01/17 08:54:22;;;;;;;2.43;1.10;;;21.60;33.30;;;;;;5093598;28;20423;-64
2022/01/17 08:56:48;;;;;;;2.10;1.00;;;21.60;33.40;;;;;;5093592;28;20753;-74
2022/01/17 08:59:13;;;;;;;2.90;1.07;;;21.60;33.20;;;;;;5091453;28;20870;-74
2022/01/17 09:01:39;;;;;;;2.72;1.08;;;21.60;33.40;;;;;;5084479;28;20410;-65
2022/01/17 09:04:05;;;;;;;2.25;1.02;;;21.60;33.20;;;;;;5091311;28;20411;-74
2022/01/17 09:06:31;;;;;;;2.13;1.08;;;21.50;33.00;;;;;;5092838;28;20743;-64
2022/01/17 09:08:57;;;;;;;3.67;1.03;;;21.50;32.90;;;;;;5092400;28;20892;-66
2022/01/17 09:11:22;;;;;;;1.88;1.02;;;21.60;32.80;;;;;;5073259;28;20390;-64
2022/01/17 09:13:48;;;;;;;2.60;1.17;;;21.50;32.80;;;;;;5092341;28;20473;-64
2022/01/17 09:16:14;;;;;;;2.08;1.13;;;21.50;33.40;;;;;;5091888;28;20420;-72
2022/01/17 09:18:40;;;;;;;4.60;1.88;;;21.50;32.90;;;;;;5091158;28;20891;-72
2022/01/17 09:21:06;;;;;;;2.08;1.30;;;21.60;34.00;;;;;;5092198;28;20422;-64
2022/01/17 09:23:31;;;;;;;2.10;1.13;;;21.70;34.20;;;;;;5095683;28;20399;-72
2022/01/17 09:25:57;;;;;;;2.67;1.10;;;21.70;34.20;;;;;;5092003;28;20386;-64
2022/01/17 09:28:28;;;;;;;2.80;1.20;;;21.70;34.00;;;;;;5073682;28;21187;-66
2022/01/17 09:30:54;;;;;;;1.90;1.20;;;21.80;33.60;;;;;;5091089;28;20386;-70
2022/01/17 09:33:20;;;;;;;1.75;1.00;;;21.70;33.70;;;;;;5093017;28;20391;-72
2022/01/17 09:35:48;;;;;;;2.03;1.00;;;21.70;33.60;;;;;;5089354;28;20474;-72
2022/01/17 09:38:14;;;;;;;2.00;1.20;;;21.70;33.50;;;;;;5090511;28;20448;-69
2022/01/17 09:40:40;;;;;;;1.90;1.25;;;21.60;33.40;;;;;;5090879;28;20398;-65
2022/01/17 09:43:07;;;;;;;2.40;1.13;;;21.70;33.50;;;;;;5090868;28;20453;-70
2022/01/17 09:45:33;;;;;;;1.85;0.93;;;21.70;33.40;;;;;;5097462;28;20376;-65
2022/01/17 09:48:01;;;;;;;1.45;0.90;;;21.70;33.30;;;;;;5103228;28;20412;-65
2022/01/17 09:50:34;;;;;;;1.67;1.00;;;21.70;33.30;;;;;;5105357;28;20839;-66
2022/01/17 09:53:04;;;;;;;1.20;0.87;;;21.70;33.30;;;;;;5095592;28;20844;-65
2022/01/17 09:55:31;;;;;;;2.00;1.05;;;21.60;33.10;;;;;;5103599;28;20389;-71
2022/01/17 09:58:06;;;;;;;1.90;1.08;;;21.60;33.10;;;;;;5103428;28;20492;-64
2022/01/17 10:00:38;;;;;;;1.67;1.02;;;21.60;33.00;;;;;;5105519;28;20412;-64
2022/01/17 10:03:07;;;;;;;2.22;1.00;;;21.60;33.00;;;;;;5095136;28;20497;-72
2022/01/17 10:05:35;;;;;;;1.70;1.00;;;21.60;32.90;;;;;;5107295;28;20720;-65
2022/01/17 10:08:04;;;;;;;1.45;0.90;;;21.60;32.90;;;;;;5091501;28;20378;-72
2022/01/17 10:10:46;;;;;;;1.90;0.90;;;21.60;32.90;;;;;;5105322;28;20384;-70
2022/01/17 10:13:20;;;;;;;1.88;1.10;;;21.60;32.80;;;;;;5095575;28;20385;-68
2022/01/17 10:16:04;;;;;;;1.70;1.02;;;21.50;32.80;;;;;;5104647;28;20386;-72
2022/01/17 10:18:35;;;;;;;1.40;1.05;;;21.50;32.80;;;;;;5071236;28;20390;-73
2022/01/17 10:21:09;;;;;;;1.30;0.90;;;21.50;32.80;;;;;;5091112;28;20907;-64
2022/01/17 10:34:54;;;;;;;1.57;1.07;;;21.50;32.50;;;;;;5090636;28;20394;-72
2022/01/17 10:37:27;;;;;;;1.92;1.02;;;21.50;32.50;;;;;;5090311;28;20393;-64
2022/01/17 10:40:01;;;;;;;1.88;0.93;;;21.40;32.50;;;;;;5090715;28;20400;-64
2022/01/17 10:42:45;;;;;;;1.90;1.10;;;21.50;32.30;;;;;;5090339;28;20426;-64
2022/01/17 10:45:23;;;;;;;2.50;1.20;;;21.50;32.50;;;;;;5087016;28;20487;-67
2022/01/17 10:47:51;;;;;;;1.70;1.00;;;21.50;33.30;;;;;;5071314;28;20398;-64
2022/01/17 10:50:20;;;;;;;2.33;1.10;;;21.60;33.10;;;;;;5094163;28;20439;-66
2022/01/17 10:52:49;;;;;;;2.22;1.10;;;21.60;32.90;;;;;;5095521;28;20377;-64
2022/01/17 10:55:42;;;;;;;3.80;0.95;;;21.70;32.80;;;;;;5095941;28;20390;-64
2022/01/17 10:58:11;;;;;;;1.55;0.90;;;21.60;32.60;;;;;;5092046;28;20397;-64
2022/01/17 11:00:43;;;;;;;2.27;0.73;;;21.60;32.60;;;;;;5094866;28;20446;-64
2022/01/17 11:03:12;;;;;;;1.35;0.80;;;21.60;32.80;;;;;;5076295;28;20429;-64
2022/01/17 11:05:40;;;;;;;2.00;0.90;;;21.60;32.70;;;;;;5095490;28;20406;-64
2022/01/17 11:08:06;;;;;;;2.33;0.90;;;21.60;32.70;;;;;;5077829;28;20394;-64
2022/01/17 11:10:39;;;;;;;2.17;0.80;;;21.50;32.60;;;;;;5094519;28;20755;-64
2022/01/17 11:13:08;;;;;;;1.70;0.90;;;21.60;32.60;;;;;;5076937;28;20401;-64
2022/01/17 11:15:35;;;;;;;1.50;0.90;;;21.50;32.40;;;;;;5094430;28;20404;-64
2022/01/17 11:18:15;;;;;;;1.08;0.77;;;21.60;32.60;;;;;;5077153;28;20398;-64
2022/01/17 11:20:41;;;;;;;1.40;0.80;;;21.60;32.50;;;;;;5076396;28;20438;-64
2022/01/17 11:23:07;;;;;;;1.85;0.90;;;21.60;32.40;;;;;;5094228;28;20422;-64
2022/01/17 11:25:36;;;;;;;1.50;0.90;;;21.60;32.30;;;;;;5095103;28;20469;-64
2022/01/17 11:28:05;;;;;;;1.05;0.70;;;21.50;32.30;;;;;;5093885;28;20405;-64
2022/01/17 11:30:35;;;;;;;1.17;0.80;;;21.60;32.30;;;;;;5075091;28;20397;-64
2022/01/17 11:33:04;;;;;;;1.30;0.80;;;21.60;32.30;;;;;;5091458;28;20386;-64
2022/01/17 11:35:31;;;;;;;1.20;0.70;;;21.50;32.10;;;;;;5093718;28;21010;-64
2022/01/17 11:38:02;;;;;;;1.52;0.77;;;21.50;32.10;;;;;;5093470;28;20456;-64
2022/01/17 11:40:33;;;;;;;1.63;0.80;;;21.60;32.20;;;;;;5093734;28;20440;-63
2022/01/17 11:43:01;;;;;;;1.30;0.80;;;21.50;32.10;;;;;;5090722;28;20513;-64
2022/01/17 11:45:33;;;;;;;1.50;0.77;;;21.50;32.10;;;;;;5075361;28;20473;-64
2022/01/17 11:48:00;;;;;;;1.23;0.80;;;21.50;32.10;;;;;;5075006;28;20441;-71
2022/01/17 11:52:56;;;;;;;1.10;0.80;;;21.50;32.10;;;;;;5094564;28;20382;-68
2022/01/17 11:55:43;;;;;;;1.30;0.85;;;21.50;32.10;;;;;;5073410;28;20397;-64
2022/01/17 11:58:30;;;;;;;1.00;0.70;;;21.50;32.00;;;;;;5092452;28;20499;-64
2022/01/17 12:01:01;;;;;;;1.20;0.80;;;21.50;32.00;;;;;;5092814;28;20478;-64
2022/01/17 12:03:37;;;;;;;1.00;0.70;;;21.50;32.00;;;;;;5091890;28;20416;-64
2022/01/17 12:06:16;;;;;;;1.50;0.80;;;21.50;31.90;;;;;;5073380;28;20394;-64
2022/01/17 12:08:42;;;;;;;1.20;0.63;;;21.50;31.90;;;;;;5072939;28;20406;-65
2022/01/17 12:11:25;;;;;;;0.90;0.60;;;21.50;32.00;;;;;;5092687;28;20940;-66
2022/01/17 12:13:51;;;;;;;0.90;0.68;;;21.50;31.90;;;;;;5072923;28;20430;-64
2022/01/17 12:16:23;;;;;;;1.00;0.60;;;21.50;31.90;;;;;;5075638;28;20413;-64
2022/01/17 12:18:59;;;;;;;1.55;0.65;;;21.50;31.80;;;;;;5092487;28;20390;-64
2022/01/17 12:21:35;;;;;;;0.93;0.65;;;21.50;31.90;;;;;;5093171;28;20386;-64
2022/01/17 12:24:18;;;;;;;1.40;0.70;;;21.50;31.80;;;;;;5094011;28;20525;-64
2022/01/17 12:27:15;;;;;;;1.00;0.80;;;21.50;31.80;;;;;;5074512;28;20412;-64
2022/01/17 12:30:11;;;;;;;1.40;0.80;;;21.50;31.80;;;;;;5091811;28;20414;-64
2022/01/17 12:32:40;;;;;;;1.05;0.75;;;21.50;31.70;;;;;;5097248;28;20414;-65
2022/01/17 12:35:05;;;;;;;1.30;0.90;;;21.50;31.80;;;;;;5090969;28;20417;-64
2022/01/17 12:37:33;;;;;;;1.40;0.70;;;21.50;31.80;;;;;;5075102;28;20422;-64
2022/01/17 12:40:19;;;;;;;1.10;0.70;;;21.50;31.80;;;;;;5093285;28;20425;-65
2022/01/17 12:42:59;;;;;;;1.33;0.82;;;21.50;31.70;;;;;;5063268;28;20426;-64
2022/01/17 12:45:59;;;;;;;1.00;0.70;;;21.40;31.70;;;;;;5090639;28;20386;-64
2022/01/17 12:48:27;;;;;;;1.60;0.80;;;21.50;31.70;;;;;;5088346;28;20410;-64
2022/01/17 12:50:55;;;;;;;1.07;0.77;;;21.50;31.70;;;;;;5074953;28;20383;-64
2022/01/17 12:53:22;;;;;;;1.25;0.70;;;21.40;31.60;;;;;;5074636;28;20387;-71
2022/01/17 12:55:50;;;;;;;0.95;0.63;;;21.40;31.60;;;;;;5075032;28;20390;-63
2022/01/17 12:58:43;;;;;;;1.33;0.90;;;21.50;31.70;;;;;;5075225;28;20389;-64
2022/01/17 13:01:17;;;;;;;1.00;0.70;;;21.50;31.70;;;;;;5089347;28;20404;-64
2022/01/17 13:03:46;;;;;;;0.80;0.60;;;21.40;31.60;;;;;;5074691;28;20475;-64
2022/01/17 13:06:18;;;;;;;1.02;0.70;;;21.40;31.60;;;;;;5090092;28;20798;-64
2022/01/17 13:08:46;;;;;;;1.65;0.80;;;21.40;31.70;;;;;;5073137;28;20490;-63
2022/01/17 13:11:16;;;;;;;0.80;0.60;;;21.40;31.70;;;;;;5092562;28;20389;-68
2022/01/17 13:13:48;;;;;;;0.98;0.70;;;21.40;31.70;;;;;;5075204;28;20398;-64
2022/01/17 13:16:16;;;;;;;1.02;0.70;;;21.40;31.70;;;;;;5093192;28;20872;-63
2022/01/17 13:18:42;;;;;;;1.00;0.80;;;21.40;31.70;;;;;;5092949;28;20413;-64
2022/01/17 13:21:08;;;;;;;1.50;0.90;;;21.40;31.80;;;;;;5072605;28;20401;-64
2022/01/17 13:23:46;;;;;;;1.30;0.80;;;21.40;31.90;;;;;;5082113;28;20816;-64
2022/01/17 13:26:18;;;;;;;1.75;0.80;;;21.30;31.80;;;;;;5054750;28;20513;-64